Pagrindinis puslapis
METAR-TAF:

METAR-TAF

Oro uostai :

Koyuk, Aliaska, Jungtinės Amerikos Valstijos

platuma: 64-56-02N, ilguma: 161-09-29W, Aukštis: 37 m

Dabartinis oras

Ataskaita buvo paskelbta 31 minutes, ne 06:56 UTC
Vėjas 10 kt iš Šiaurės/Šiaurės Vakarų su gūsio iki 15 kt
Temperatūra -20°C
Drėgmė 70%
Slėgis 1015 hPa
Matomumas: 16.1 km
Giedras dangus

METAR: PAKK 280656Z AUTO 34010G15KT 10SM CLR M20/M24 A2996 RMK AO2 SLP159 T12001239 FZRANO

Laikas: 22:27 (07:27 UTC)


TAF: trūkstamas

Orai ataskaitas ir orų prognozės (METAR, TAF).

turimą stotys yra geltonos ir raudonos taškus žemėlapyje.

Perkelti pele per norėdami pamatyti stoties vardą.

Tada spustelėkite, norėdami matyti oro stebėjimo ir prognozės.

Norėdami pakeisti žemėlapį: spustelėkite ant žalios mygtukų su juodo kryžiaus žemyn,; žalią mygtuką su brūkšneliu, jei norite nutolinti; arba žalių rodyklių gretimoms žemėlapius.


METAR-TAF: